NWS Home NWS Lubbock West Texas Mesonet Latest Conditions as of 1224 PM, Wed Dec 02, 2020

Latest   N   C   S   Daily Sum   3hrΔ   24hrΔ   Soil Data 
Site Map   24hr Precip   72hr Precip   Google Plot


Station Time of Last Temp Dew Pt. RH Wind Direction Wind Speed Wind Gust Max Wind Max Temp Min Temp Max RH Min RH Altimeter 1HR Rain Today's Rain Solar Rad Wind ChillRFTI
Abernathy 5ENE  12:20 PM 37 24 58% N2430 45 mph 1° @ 0844 AM 38 29 78 48 30.23" 0 0 140   0
Adrian 6WSW  12:20 PM 30 21 70% N2327 40 mph 6° @ 1152 AM 34 28 85 68 30.29" 0 0 149 17 0
Aiken 3WSW  12:20 PM 36 24 63% N2733 40 mph 356° @ 1026 AM 36 31 69 56 30.23" 0 0 107   0
Amarillo 15NNW   12:20 PM 34 23 64% N2935 39 mph 351° @ 0528 AM 39 33 77 45 30.27" 0 0 166 21 0
Amarillo 7SSE  12:20 PM 33 25 72% N2630 44 mph 3° @ 0527 AM 36 32 80 47 30.23" 0 0 229 20 0
Amarillo 9NNE  12:20 PM 34 24 68% N2833 42 mph 4° @ 0508 AM 38 32 77 45 30.25" 0 0 86 21 0
Amherst 1NE  12:20 PM 35 24 64% N2533 41 mph 355° @ 1025 AM 38 32 75 46 30.26" 0 0 178 23 0
Andrews 2E  12:20 PM 40 24 53% N1723 35 mph 346° @ 1037 AM 43 34 67 35 30.28" 0 0 137   0
Anton 6SSW  12:20 PM 35 25 69% NW2532 39 mph 351° @ 1050 AM 39 32 75 42 30.26" 0 0 188 23 0
Aspermont 3NE  12:20 PM 46 29 51% NW2331 34 mph 338° @ 1015 AM 46 36 73 50 30.19" 0 0 566   0
Big Bend NP - Castolon  12:20 PM 58 18 21% NW912 24 mph 349° @ 1013 AM 58 44 40 21 30.21" 0 0 719   0
Big Bend NP - Persimmon Gap  12:20 PM 52 18 26% N1219 41 mph 349° @ 0455 AM 53 44 36 19 30.23" 0 0 694   0
Big Lake 1WNW  12:20 PM 48 23 38% N1926 33 mph 353° @ 1011 AM 48 35 57 38 30.23" 0 0 685   0
Bootleg 11WNW  12:20 PM 30 24 75% N3339 41 mph 357° @ 1209 PM 33 27 99 67 30.29" 0 0 422 14 0
Borger 7E  12:20 PM 32 29 88% N2834 44 mph 346° @ 1052 AM 36 31 92 52 30.24" 0 0 210 18 0
Boys Ranch 1WSW  12:20 PM 34 22 62% N2531 41 mph 1° @ 1101 AM 39 33 73 49 30.32" 0 0 194 21 0
Brownfield 2S  12:20 PM 37 23 56% N2226 38 mph 358° @ 0926 AM 41 34 70 36 30.27" 0 0 131   0
Canadian 6E  12:20 PM 33 32 94% N2226 42 mph 351° @ 0312 AM 37 31 99 58 30.18" 0 0 118 21 0
Caprock Canyons State Park  12:15 PM 38 25 60% N2230 44 mph 347° @ 0341 AM 42 37 63 41 30.21" 0 0 144   0
Childress 2NNE  12:20 PM 35 32 88% NW2127 39 mph 340° @ 0910 AM 39 35 91 57 30.18" 0 0 58 24 0
Clarendon 2WSW  12:20 PM 36 28 72% N3138 43 mph 3° @ 0855 AM 38 35 80 54 30.19" 0 0 271   0
Claude 12SW  12:15 PM 34 26 71% NW3443 43 mph 332° @ 1202 PM 35 33 74 55 30.20" 0 0 191 20 0
Clyde 2WNW  12:20 PM 48 29 48% NW1822 32 mph 331° @ 0933 AM 48 35 72 47 30.15" 0 0 667   0
Colorado City 5NW  12:20 PM 48 25 40% NW2024 35 mph 338° @ 1050 AM 48 34 73 39 30.22" 0 0 680   0
Comanche Springs  12:20 PM 39 32 74% NW1622 42 mph 332° @ 0853 AM 42 36 81 60 30.18" 0 0 136   0
Coyanosa 2N  12:20 PM 48 23 37% N1114 23 mph 335° @ 1040 AM 49 36 47 21 30.30" 0 0 340   0
Crane 1NNW   12:20 PM 48 24 39% NE1722 26 mph 2° @ 1151 AM 49 31 56 35 30.28" 0 0 773   0
Crowell 1E  12:20 PM 41 31 67% N2328 36 mph 335° @ 1006 AM 44 35 81 57 30.17" 0 0 301   0
Dell City  12:20 PM 44 22 41% NE1417 29 mph 23° @ 1018 AM 45 30 75 34 30.30" 0 0 640   0
Denver City 7WNW  12:20 PM 37 23 57% N2027 34 mph 353° @ 0925 AM 40 31 75 37 30.29" 0 0 127   0
Dimmitt 2NE  12:20 PM 32 24 72% N3239 44 mph 346° @ 1135 AM 35 30 84 51 30.24" 0 0 158 17 0
Doole 3WNW  12:20 PM 53 27 37% NW2126 26 mph 318° @ 1220 PM 53 32 73 37 30.17" 0 0 668   0
Dora NM 2SW  12:20 PM 35 20 53% N2733 40 mph 358° @ 1045 AM 36 28 80 45 30.29" 0 0 406 22 0
Dozier 3W  12:20 PM 36 32 86% N2430 43 mph 351° @ 0838 AM 39 35 92 56 30.19" 0 0 225   0
Earth 9WSW  12:20 PM 34 23 62% N2833 41 mph 346° @ 1043 AM 37 33 76 46 30.27" 0 0 267 21 0
Endee NM 2SW  12:20 PM 34 19 52% N3033 43 mph 355° @ 1207 PM 38 31 84 52 30.31" 0 0 310 20 0
Estelline 3SSE  12:20 PM 38 30 71% N2836 36 mph 340° @ 0854 AM 41 38 71 52 30.21" 0 0 56   0
Floydada 2NNE  12:20 PM 37 23 57% N2229 41 mph 350° @ 1105 AM 39 33 62 48 30.21" 0 0 107   0
Fluvanna 3WNW  12:20 PM 43 24 48% N2530 38 mph 340° @ 0625 AM 43 36 56 48 30.21" 0 0 554   0
Fort Chadbourne  12:20 PM 50 28 43% N915 31 mph 327° @ 1146 AM 50 31 77 41 30.18" 0 0 587   0
Fort Lancaster  12:20 PM 53 24 32% N1014 27 mph 320° @ 1043 AM 53 31 69 32 30.24" 0 0 655   0
Fort Lewis CO  12:20 PM 33 5 30% E913 17 mph 111° @ 1135 AM 33 10 61 30 30.26" 0 0 596 25 0
Fort McKavett  12:20 PM 52 25 35% NW1115 22 mph 330° @ 1016 AM 52 32 73 35 30.18" 0 0 673   0
Friona 2NE  12:20 PM 32 22 66% N3138 43 mph 346° @ 1210 PM 33 30 81 56 30.27" 0 0 278 17 0
Fritch 1WNW  12:20 PM 34 27 73% N2432 44 mph 14° @ 0552 AM 40 34 77 47 30.25" 0 0 200 22 0
Gail 2ESE  12:20 PM 44 23 44% NW2430 35 mph 345° @ 1049 AM 44 37 54 43 30.24" 0 0 432   0
Goodlett 3W  12:20 PM 38 30 73% N2231 37 mph 343° @ 0915 AM 39 35 77 65 30.17" 0 0 167   0
Goodnight  12:20 PM 36 27 69% N3139 45 mph 348° @ 1155 AM 38 33 73 54 30.20" 0 0 288   0
Graham 5SSW  12:20 PM 40 23 50% N2635 44 mph 351° @ 0951 AM 42 35 58 44 30.23" 0 0 201   0
Guadalupe Mtns Natl Park  12:20 PM 36 20 52% E1517 31 mph 28° @ 0110 AM 38 28 71 35 30.25" 0 0 551   0
Guthrie 10WSW  12:20 PM 42 26 54% NW2736 43 mph 346° @ 0925 AM 43 38 55 48 30.18" 0 0 210   0
Hackberry 2SSE  12:20 PM 38 31 75% N3034 41 mph 352° @ 0908 AM 43 37 75 55 30.20" 0 0 165   0
Happy 1E  12:20 PM 35 25 66% N3241 42 mph 4° @ 0722 AM 35 33 76 51 30.22" 0 0 246 21 0
Hart 3N  12:20 PM 33 25 73% N2734 42 mph 342° @ 1145 AM 36 32 84 51 30.24" 0 0 91 20 0
Haskell 1NW  12:20 PM 43 32 66% NW2029 36 mph 337° @ 0955 AM 46 36 76 56 30.17" 0 0 248   0
Hefner 1SW  12:20 PM 45 33 62% NW2126 35 mph 332° @ 1014 AM 45 36 79 60 30.16" 0 0 570   0
Hereford 2NW  12:20 PM 31 24 75% N2940 43 mph 351° @ 1135 AM 34 30 88 55 30.25" 0 0 251 16 0
Hobbs NM 5NW  12:20 PM 37 20 50% N1518 31 mph 360° @ 1010 AM 40 31 68 30 30.31" 0 0 194   0
Jayton 1SSE  12:20 PM 44 26 48% N1822 33 mph 344° @ 0855 AM 45 39 64 47 30.20" 0 0 246   0
Junction 1SSW  12:20 PM 54 28 36% N1014 18 mph 310° @ 1216 PM 54 27 97 35 30.17" 0 0 587   0
Kent 9E  12:20 PM 42 22 45% N710 23 mph 308° @ 1206 AM 47 34 59 22 30.31" 0 0 716   0
Knox City 3NW  12:20 PM 42 31 66% NW2227 36 mph 335° @ 0946 AM 47 37 71 51 30.18" 0 0 210   0
Lake Alan Henry 1NW  12:20 PM 43 24 47% N2026 34 mph 4° @ 1041 AM 45 37 55 45 30.22" 0 0 257   0
Lake McClellan 2NW  12:20 PM 34 28 79% N3340 46 mph 352° @ 0809 AM 36 33 87 56 30.19" 0 0 167 20 0
Lamesa 2SE  12:20 PM 40 26 57% NW1926 33 mph 337° @ 0645 AM 43 35 69 41 30.27" 0 0 151   0
Lesley 2S  12:15 PM 39 31 73% N2227 43 mph 353° @ 1034 AM 42 38 74 47 30.21" 0 0 93   0
Levelland 4S  12:20 PM 35 25 65% NW1924 41 mph 350° @ 1021 AM 40 32 75 38 30.27" 0 0 95 24 0
Lomax 1SSE  12:20 PM 44 23 42% N2023 34 mph 3° @ 0952 AM 46 34 56 40 30.26" 0 0 275   0
Lubbock 3WNW TTU  12:20 PM 38 24 58% N1425 34 mph 358° @ 0900 AM 40 33 74 45 30.25" 0 0 78   0
McAdoo 3NNW  12:20 PM 38 25 59% N2633 49 mph 357° @ 0956 AM 40 34 65 48 30.20" 0 0 250   0
McCamey 1SSW  12:20 PM 49 24 38% NW1923 27 mph 333° @ 1150 AM 50 31 51 35 30.27" 0 0 584   0
McLean 1E  12:20 PM 32 31 96% N1925 45 mph 351° @ 1100 AM 35 32 96 60 30.16" 0 0 108 20 0
Memphis 1NE  12:20 PM 38 30 72% N3747 49 mph 354° @ 1200 PM 41 37 75 53 30.18" 0 0 226   0
Menard 2NW   12:20 PM 51 27 40% NW1317 25 mph 348° @ 1105 AM 51 30 90 39 30.17" 0 0 597   0
Mertzon 3NNE  12:20 PM 51 23 33% NW2025 29 mph 354° @ 0930 AM 52 34 60 33 30.22" 0 0 647   0
Morton 1ENE  12:20 PM 36 21 53% N2331 38 mph 359° @ 0900 AM 39 32 74 38 30.28" 0 0 183   0
Muleshoe 2SSW  12:20 PM 35 24 62% N2433 42 mph 2° @ 1130 AM 38 33 78 46 30.28" 0 0 361 23 0
New Home  12:20 PM 38 24 56% N1823 33 mph 348° @ 1127 AM 41 32 73 42 30.27" 0 0 101   0
Northfield 1S  12:20 PM 39 28 65% N2331 41 mph 347° @ 1040 AM 41 38 65 49 30.21" 0 0 74   0
O'Donnell 1N  12:20 PM 39 24 54% NW2330 40 mph 350° @ 1040 AM 42 33 71 43 30.26" 0 0 103   0
Odell 4ENE  12:20 PM 41 30 66% NW2024 32 mph 333° @ 0945 AM 45 29 89 57 30.15" 0 0 145   0
Olton 6S  12:20 PM 35 24 66% N2835 40 mph 359° @ 1010 AM 37 32 75 48 30.23" 0 0 223 22 0
Paducah 10SW  12:20 PM 40 28 65% N2228 47 mph 345° @ 0845 AM 42 37 65 56 30.19" 0 0 107   0
Palo Duro 4E (JA Ranch)  12:20 PM 41 27 57% N3339 45 mph 350° @ 1212 PM 41 37 65 48 30.20" 0 0 712   0
Palo Duro Canyon SP Floor  12:20 PM 38 26 60% N1831 38 mph 322° @ 1205 PM 39 36 68 45 30.25" 0 0 253   0
Palo Duro Canyon State Park Rim  12:20 PM 35 24 65% N2331 40 mph 360° @ 0820 AM 38 33 72 44 30.23" 0 0 364 23 0
Palo Duro Reservoir 1NW   12:20 PM 32 28 87% N2936 44 mph 342° @ 1001 AM 37 31 90 53 30.24" 0.01 0.02 187 18 0
Pampa 2E  12:20 PM 31 30 94% NW2836 42 mph 339° @ 0915 AM 35 31 97 58 30.18" 0 0 306 17 0
Panhandle 1SSW  12:20 PM 31 30 94% N3138 43 mph 349° @ 0622 AM 35 31 94 57 30.22" 0 0 222 16 0
Plains 3N  12:20 PM 35 22 59% N2632 36 mph 357° @ 1100 AM 39 31 78 40 30.29" 0 0 169 23 0
Plainview 1S  12:20 PM 36 24 60% N2534 42 mph 354° @ 1059 AM 38 33 67 48 30.23" 0 0 147   0
Post 1NE  12:20 PM 42 23 46% N2636 43 mph 346° @ 1025 AM 43 35 57 44 30.23" 0 0 261   0
Ralls 1SE  12:20 PM 39 22 50% N2129 41 mph 357° @ 0940 AM 39 33 58 46 30.22" 0 0 162   0
Reese Center  12:20 PM 37 24 59% N2631 42 mph 5° @ 0913 AM 39 32 75 43 30.25" 0 0 73   0
Roaring Springs 3N  12:20 PM 39 29 69% NW2835 46 mph 325° @ 0910 AM 41 37 69 53 30.19" 0 0 111   0
Romero 11SSW  12:20 PM 34 18 53% N3642 46 mph 358° @ 1208 PM 37 31 76 50 30.30" 0 0 206 19 0
Rotan 5W  12:20 PM 47 26 45% NW2429 35 mph 326° @ 0959 AM 48 37 64 42 30.21" 0 0 423   0
San Angelo 7NW  12:20 PM 50 26 39% NW1622 27 mph 322° @ 0945 AM 50 33 72 39 30.20" 0 0 652   0
Seagraves 1SW  12:20 PM 37 24 60% N2126 33 mph 349° @ 1100 AM 41 32 74 36 30.29" 0 0 109   0
Segovia 7SSW  12:20 PM 53 27 37% N1317 21 mph 325° @ 1217 PM 53 41 95 37 30.15" 0 0 673   0
Seminole 2NNE  12:20 PM 38 24 57% N2228 32 mph 351° @ 1120 AM 42 34 68 34 30.29" 0 0 121   0
Seymour 3NW  12:20 PM 44 33 65% NW1926 33 mph 316° @ 1040 AM 46 33 88 46 30.14" 0 0 212   0
Sierra Blanca 1SSE  12:20 PM 42 19 40% E1214 26 mph 9° @ 1216 AM 44 28 55 31 30.26" 0 0 149   0
Silverton 7ESE  12:20 PM 37 25 63% N2937 41 mph 357° @ 0510 AM 39 34 71 51 30.18" 0 0 172   0
Slaton 2NE  12:20 PM 38 23 53% N1923 45 mph 1° @ 1030 AM 41 33 65 47 30.24" 0 0 105   0
Smyer  12:20 PM 36 25 63% N2528 37 mph 352° @ 1030 AM 39 31 75 41 30.27" 0 0 148   0
Snyder 3E  12:20 PM 45 25 45% NW2736 39 mph 341° @ 1100 AM 46 36 67 45 30.20" 0 0 458   0
Snyder 3SSW  12:20 PM 44 25 46% NW2126 34 mph 329° @ 1048 AM 47 37 59 42 30.21" 0 0 393   0
South Plains 3ENE  12:20 PM 37 25 60% N1925 42 mph 348° @ 0948 AM 39 34 66 49 30.21" 0 0 163   0
Spur 1W  12:20 PM 43 25 49% N2231 40 mph 359° @ 0910 AM 45 39 57 44 30.19" 0 0 236   0
St. Lawrence 5SW  12:20 PM 46 25 43% N2230 32 mph 357° @ 1000 AM 46 35 55 43 30.24" 0 0 664   0
Stamford 5ESE  12:20 PM 45 31 58% N2125 32 mph 328° @ 0953 AM 48 36 76 51 30.18" 0 0 271   0
Sterling City 4WSW  12:20 PM 49 23 36% NW1216 29 mph 343° @ 1110 AM 49 37 54 36 30.23" 0 0 534   0
Stinnett 1NNW  12:20 PM 31 29 90% N2937 48 mph 7° @ 0639 AM 36 31 94 54 30.25" 0 0 182 16 0
Stratford 4WNW  12:20 PM 29 24 79% N3237 43 mph 353° @ 1054 AM 39 29 88 49 30.29" 0 0 220 13 0
Sundown 8WSW  12:20 PM 36 22 59% N2129 39 mph 359° @ 1015 AM 39 31 76 36 30.28" 0 0 100   0
Sweetwater 11SW   12:20 PM 46 26 45% NW1721 30 mph 327° @ 1128 AM 47 34 65 44 30.20" 0 0 376   0
Tahoka 3NNE  12:20 PM 39 22 51% N2428 38 mph 359° @ 1025 AM 41 32 70 44 30.24" 0 0 139   0
Tarzan 2WNW  12:20 PM 41 24 49% N1823 32 mph 347° @ 1020 AM 44 36 62 42 30.28" 0 0 191   0
Tatum NM 2SW  12:20 PM 36 20 52% N2429 37 mph 357° @ 0825 AM 38 29 75 36 30.30" 0 0 261   0
Throckmorton 1SW  12:20 PM 46 32 58% NW2326 33 mph 320° @ 0947 AM 47 36 81 46 30.14" 0 0 202   0
Truscott 2SE  12:20 PM 42 31 63% NW2531 36 mph 329° @ 1015 AM 44 37 75 60 30.17" 0 0 261   0
Tulia 2ENE  12:20 PM 36 25 64% N2838 43 mph 348° @ 1125 AM 37 32 70 55 30.22" 0 0 255   0
Turkey 2WSW  12:20 PM 38 28 66% NW2025 45 mph 326° @ 0945 AM 41 37 67 49 30.20" 0 0 66   0
Umbarger 3NNE  12:20 PM 33 24 69% N3341 42 mph 359° @ 1153 AM 34 30 89 51 30.24" 0 0 447 18 0
Van Horn 3ENE  12:20 PM 43 22 43% NE1620 29 mph 41° @ 0946 AM 45 34 57 25 30.28" 0 0 256   0
Vega 4E  12:20 PM 30 23 75% N3037 47 mph 4° @ 0821 AM 34 28 89 58 30.27" 0 0 395 15 0
Vigo Park  12:20 PM 35 25 66% N3339 43 mph 347° @ 1142 AM 36 33 72 54 30.21" 0 0 185 21 0
Wall 2E  12:20 PM 51 27 39% NW1620 27 mph 338° @ 0936 AM 52 33 66 37 30.20" 0 0 656   0
Weinert 2NNE  12:20 PM 43 31 61% NW2428 34 mph 343° @ 1017 AM 45 36 73 56 30.17" 0 0 282   0
Welch  12:20 PM 39 24 55% N2326 33 mph 358° @ 1046 AM 40 33 71 41 30.27" 0 0 186   0
White River Lake 6NW  12:20 PM 43 24 48% N3037 53 mph 349° @ 1038 AM 44 36 58 45 30.19" 0 0 759   0
Wolfforth 6SSW  12:20 PM 37 23 57% N1824 44 mph 1° @ 0910 AM 39 32 73 42 30.26" 0 0 112   0

West Texas Mesonet Home   Site Map/Menu  NWS Lubbock Soil Data  Daily Summary Page  24hr Precip  72hr Precip  Google Plot